Terminal Aerodrome Forecast
Issued by NWS Blacksburg, VA

Home | Current Version | Previous Version | Text Only | Print | Product List | Glossary On
Versions: 1 2 3 4 5 6 7 8 9 10 11 12 13 14 15 16 17 18 19 20 21 22 23 24 25 26 27 28 29 30 31 32 33 34 35 36 37 38 39 40 41 42 43 44 45 46 47 48 49 50
000
FTUS41 KRNK 240057 AAA
TAFDAN
TAF AMD
KDAN 240057Z 2401/2424 00000KT P6SM BKN250
     FM240300 VRB03KT P6SM BKN040
     FM240600 20004KT 4SM BR BKN003
     FM241300 21004KT P6SM BKN025
     FM242000 22007KT P6SM BKN035=

USA.gov is the U.S. government's official web portal to all federal, state and local government web resources and services.